sensor_id;sensor_type;location;lat;lon;timestamp;temperature;humidity
9939;DHT22;5008;50.656;7.188;2022-08-01T00:01:26;22.00;99.90
9939;DHT22;5008;50.656;7.188;2022-08-01T00:03:53;22.00;99.90
9939;DHT22;5008;50.656;7.188;2022-08-01T00:06:20;22.00;99.90
9939;DHT22;5008;50.656;7.188;2022-08-01T00:09:10;21.90;99.90
9939;DHT22;5008;50.656;7.188;2022-08-01T00:11:37;21.90;99.90
9939;DHT22;5008;50.656;7.188;2022-08-01T00:14:03;21.90;99.90
9939;DHT22;5008;50.656;7.188;2022-08-01T00:16:30;21.90;99.90
9939;DHT22;5008;50.656;7.188;2022-08-01T00:18:57;21.90;99.90
9939;DHT22;5008;50.656;7.188;2022-08-01T00:21:24;21.90;99.90
9939;DHT22;5008;50.656;7.188;2022-08-01T00:23:51;21.90;99.90
9939;DHT22;5008;50.656;7.188;2022-08-01T00:26:19;21.90;99.90
9939;DHT22;5008;50.656;7.188;2022-08-01T00:29:11;21.90;99.90
9939;DHT22;5008;50.656;7.188;2022-08-01T00:31:37;21.90;99.90
9939;DHT22;5008;50.656;7.188;2022-08-01T00:34:04;21.90;99.90
9939;DHT22;5008;50.656;7.188;2022-08-01T00:36:31;21.90;99.90
9939;DHT22;5008;50.656;7.188;2022-08-01T00:38:58;21.90;99.90
9939;DHT22;5008;50.656;7.188;2022-08-01T00:41:26;21.80;99.90
9939;DHT22;5008;50.656;7.188;2022-08-01T00:43:53;21.90;99.90
9939;DHT22;5008;50.656;7.188;2022-08-01T00:46:19;21.80;99.90
9939;DHT22;5008;50.656;7.188;2022-08-01T00:48:46;21.80;99.90
9939;DHT22;5008;50.656;7.188;2022-08-01T00:51:13;21.80;99.90
9939;DHT22;5008;50.656;7.188;2022-08-01T00:53:40;21.70;99.90
9939;DHT22;5008;50.656;7.188;2022-08-01T00:56:08;21.80;99.90
9939;DHT22;5008;50.656;7.188;2022-08-01T00:58:37;21.80;99.90
9939;DHT22;5008;50.656;7.188;2022-08-01T01:01:03;21.80;99.90
9939;DHT22;5008;50.656;7.188;2022-08-01T01:03:30;21.70;99.90
9939;DHT22;5008;50.656;7.188;2022-08-01T01:06:06;21.70;99.90
9939;DHT22;5008;50.656;7.188;2022-08-01T01:08:39;21.80;99.90
9939;DHT22;5008;50.656;7.188;2022-08-01T01:11:12;21.70;99.90
9939;DHT22;5008;50.656;7.188;2022-08-01T01:13:50;21.70;99.90
9939;DHT22;5008;50.656;7.188;2022-08-01T01:16:19;21.80;99.90
9939;DHT22;5008;50.656;7.188;2022-08-01T01:18:51;21.70;99.90
9939;DHT22;5008;50.656;7.188;2022-08-01T01:21:33;21.70;99.90
9939;DHT22;5008;50.656;7.188;2022-08-01T01:24:11;21.60;99.90
9939;DHT22;5008;50.656;7.188;2022-08-01T01:26:49;21.60;99.90
9939;DHT22;5008;50.656;7.188;2022-08-01T01:29:21;21.60;99.90
9939;DHT22;5008;50.656;7.188;2022-08-01T01:31:52;21.60;99.90
9939;DHT22;5008;50.656;7.188;2022-08-01T01:34:23;21.70;99.90
9939;DHT22;5008;50.656;7.188;2022-08-01T01:36:52;21.70;99.90
9939;DHT22;5008;50.656;7.188;2022-08-01T01:39:20;21.70;99.90
9939;DHT22;5008;50.656;7.188;2022-08-01T01:41:48;21.70;99.90
9939;DHT22;5008;50.656;7.188;2022-08-01T01:44:17;21.70;99.90
9939;DHT22;5008;50.656;7.188;2022-08-01T01:46:46;21.60;99.90
9939;DHT22;5008;50.656;7.188;2022-08-01T01:49:14;21.60;99.90
9939;DHT22;5008;50.656;7.188;2022-08-01T01:51:42;21.60;99.90
9939;DHT22;5008;50.656;7.188;2022-08-01T01:54:10;21.60;99.90
9939;DHT22;5008;50.656;7.188;2022-08-01T01:56:37;21.60;99.90
9939;DHT22;5008;50.656;7.188;2022-08-01T01:59:15;21.60;99.90
9939;DHT22;5008;50.656;7.188;2022-08-01T02:01:47;21.70;99.90
9939;DHT22;5008;50.656;7.188;2022-08-01T02:04:14;21.70;99.90
9939;DHT22;5008;50.656;7.188;2022-08-01T02:06:42;21.60;99.90
9939;DHT22;5008;50.656;7.188;2022-08-01T02:09:10;21.50;99.90
9939;DHT22;5008;50.656;7.188;2022-08-01T02:11:38;21.50;99.90
9939;DHT22;5008;50.656;7.188;2022-08-01T02:14:07;21.50;99.90
9939;DHT22;5008;50.656;7.188;2022-08-01T02:16:37;21.50;99.90
9939;DHT22;5008;50.656;7.188;2022-08-01T02:19:08;21.50;99.90
9939;DHT22;5008;50.656;7.188;2022-08-01T02:21:39;21.50;99.90
9939;DHT22;5008;50.656;7.188;2022-08-01T02:24:12;21.60;99.90
9939;DHT22;5008;50.656;7.188;2022-08-01T02:26:43;21.50;99.90
9939;DHT22;5008;50.656;7.188;2022-08-01T02:29:14;21.40;99.90
9939;DHT22;5008;50.656;7.188;2022-08-01T02:31:45;21.40;99.90
9939;DHT22;5008;50.656;7.188;2022-08-01T02:34:17;21.40;99.90
9939;DHT22;5008;50.656;7.188;2022-08-01T02:36:46;21.30;99.90
9939;DHT22;5008;50.656;7.188;2022-08-01T02:39:15;21.30;99.90
9939;DHT22;5008;50.656;7.188;2022-08-01T02:41:44;21.30;99.90
9939;DHT22;5008;50.656;7.188;2022-08-01T02:44:18;21.40;99.90
9939;DHT22;5008;50.656;7.188;2022-08-01T02:46:51;21.30;99.90
9939;DHT22;5008;50.656;7.188;2022-08-01T02:49:20;21.20;99.90
9939;DHT22;5008;50.656;7.188;2022-08-01T02:51:49;21.10;99.90
9939;DHT22;5008;50.656;7.188;2022-08-01T02:54:18;21.10;99.90
9939;DHT22;5008;50.656;7.188;2022-08-01T02:56:48;21.20;99.90
9939;DHT22;5008;50.656;7.188;2022-08-01T02:59:19;21.20;99.90
9939;DHT22;5008;50.656;7.188;2022-08-01T03:01:51;21.10;99.90
9939;DHT22;5008;50.656;7.188;2022-08-01T03:04:22;21.00;99.90
9939;DHT22;5008;50.656;7.188;2022-08-01T03:06:50;21.10;99.90
9939;DHT22;5008;50.656;7.188;2022-08-01T03:09:18;21.10;99.90
9939;DHT22;5008;50.656;7.188;2022-08-01T03:11:46;21.10;99.90
9939;DHT22;5008;50.656;7.188;2022-08-01T03:14:15;21.20;99.90
9939;DHT22;5008;50.656;7.188;2022-08-01T03:16:44;21.10;99.90
9939;DHT22;5008;50.656;7.188;2022-08-01T03:19:12;21.00;99.90
9939;DHT22;5008;50.656;7.188;2022-08-01T03:21:43;21.00;99.90
9939;DHT22;5008;50.656;7.188;2022-08-01T03:24:11;21.00;99.90
9939;DHT22;5008;50.656;7.188;2022-08-01T03:26:39;21.00;99.90
9939;DHT22;5008;50.656;7.188;2022-08-01T03:29:10;21.00;99.90
9939;DHT22;5008;50.656;7.188;2022-08-01T03:31:39;21.00;99.90
9939;DHT22;5008;50.656;7.188;2022-08-01T03:34:08;21.00;99.90
9939;DHT22;5008;50.656;7.188;2022-08-01T03:36:45;21.00;99.90
9939;DHT22;5008;50.656;7.188;2022-08-01T03:39:13;21.00;99.90
9939;DHT22;5008;50.656;7.188;2022-08-01T03:41:49;21.00;99.90
9939;DHT22;5008;50.656;7.188;2022-08-01T03:44:20;20.90;99.90
9939;DHT22;5008;50.656;7.188;2022-08-01T03:46:54;20.90;99.90
9939;DHT22;5008;50.656;7.188;2022-08-01T03:49:25;20.90;99.90
9939;DHT22;5008;50.656;7.188;2022-08-01T03:51:57;21.00;99.90
9939;DHT22;5008;50.656;7.188;2022-08-01T03:54:30;21.10;99.90
9939;DHT22;5008;50.656;7.188;2022-08-01T03:56:58;20.90;99.90
9939;DHT22;5008;50.656;7.188;2022-08-01T03:59:26;20.90;99.90
9939;DHT22;5008;50.656;7.188;2022-08-01T04:01:54;20.90;99.90
9939;DHT22;5008;50.656;7.188;2022-08-01T04:04:22;20.90;99.90
9939;DHT22;5008;50.656;7.188;2022-08-01T04:06:49;20.90;99.90
9939;DHT22;5008;50.656;7.188;2022-08-01T04:09:20;20.90;99.90
9939;DHT22;5008;50.656;7.188;2022-08-01T04:11:48;20.90;99.90
9939;DHT22;5008;50.656;7.188;2022-08-01T04:14:15;20.90;99.90
9939;DHT22;5008;50.656;7.188;2022-08-01T04:16:42;20.90;99.90
9939;DHT22;5008;50.656;7.188;2022-08-01T04:19:09;20.90;99.90
9939;DHT22;5008;50.656;7.188;2022-08-01T04:21:36;20.90;99.90
9939;DHT22;5008;50.656;7.188;2022-08-01T04:24:06;20.90;99.90
9939;DHT22;5008;50.656;7.188;2022-08-01T04:26:36;20.90;99.90
9939;DHT22;5008;50.656;7.188;2022-08-01T04:29:05;20.90;99.90
9939;DHT22;5008;50.656;7.188;2022-08-01T04:31:33;20.80;99.90
9939;DHT22;5008;50.656;7.188;2022-08-01T04:34:02;20.80;99.90
9939;DHT22;5008;50.656;7.188;2022-08-01T04:36:33;20.80;99.90
9939;DHT22;5008;50.656;7.188;2022-08-01T04:39:04;20.80;99.90
9939;DHT22;5008;50.656;7.188;2022-08-01T04:41:32;20.80;99.90
9939;DHT22;5008;50.656;7.188;2022-08-01T04:44:02;20.90;99.90
9939;DHT22;5008;50.656;7.188;2022-08-01T04:46:29;20.90;99.90
9939;DHT22;5008;50.656;7.188;2022-08-01T04:48:59;20.90;99.90
9939;DHT22;5008;50.656;7.188;2022-08-01T04:51:27;20.90;99.90
9939;DHT22;5008;50.656;7.188;2022-08-01T04:53:54;20.90;99.90
9939;DHT22;5008;50.656;7.188;2022-08-01T04:56:23;20.90;99.90
9939;DHT22;5008;50.656;7.188;2022-08-01T04:58:49;20.90;99.90
9939;DHT22;5008;50.656;7.188;2022-08-01T05:01:41;21.00;99.90
9939;DHT22;5008;50.656;7.188;2022-08-01T05:04:07;21.00;99.90
9939;DHT22;5008;50.656;7.188;2022-08-01T05:06:43;21.00;99.90
9939;DHT22;5008;50.656;7.188;2022-08-01T05:09:10;20.90;99.90
9939;DHT22;5008;50.656;7.188;2022-08-01T05:11:37;21.00;99.90
9939;DHT22;5008;50.656;7.188;2022-08-01T05:14:04;21.00;99.90
9939;DHT22;5008;50.656;7.188;2022-08-01T05:16:32;21.00;99.90
9939;DHT22;5008;50.656;7.188;2022-08-01T05:19:00;21.00;99.90
9939;DHT22;5008;50.656;7.188;2022-08-01T05:21:28;21.00;99.90
9939;DHT22;5008;50.656;7.188;2022-08-01T05:23:55;21.00;99.90
9939;DHT22;5008;50.656;7.188;2022-08-01T05:26:23;21.00;99.90
9939;DHT22;5008;50.656;7.188;2022-08-01T05:28:50;21.00;99.90
9939;DHT22;5008;50.656;7.188;2022-08-01T05:31:17;21.00;99.90
9939;DHT22;5008;50.656;7.188;2022-08-01T05:33:43;21.10;99.90
9939;DHT22;5008;50.656;7.188;2022-08-01T05:36:12;21.10;99.90
9939;DHT22;5008;50.656;7.188;2022-08-01T05:38:38;21.10;99.90
9939;DHT22;5008;50.656;7.188;2022-08-01T05:41:05;21.10;99.90
9939;DHT22;5008;50.656;7.188;2022-08-01T05:43:32;21.20;99.90
9939;DHT22;5008;50.656;7.188;2022-08-01T05:45:59;21.20;99.90
9939;DHT22;5008;50.656;7.188;2022-08-01T05:48:26;21.10;99.90
9939;DHT22;5008;50.656;7.188;2022-08-01T05:50:54;21.10;99.90
9939;DHT22;5008;50.656;7.188;2022-08-01T05:53:22;21.10;99.90
9939;DHT22;5008;50.656;7.188;2022-08-01T05:55:49;21.10;99.90
9939;DHT22;5008;50.656;7.188;2022-08-01T05:58:15;21.10;99.90
9939;DHT22;5008;50.656;7.188;2022-08-01T06:00:42;21.20;99.90
9939;DHT22;5008;50.656;7.188;2022-08-01T06:03:11;21.30;99.90
9939;DHT22;5008;50.656;7.188;2022-08-01T06:05:39;21.20;99.90
9939;DHT22;5008;50.656;7.188;2022-08-01T06:08:09;21.20;99.90
9939;DHT22;5008;50.656;7.188;2022-08-01T06:10:40;21.20;99.90
9939;DHT22;5008;50.656;7.188;2022-08-01T06:13:06;21.20;99.90
9939;DHT22;5008;50.656;7.188;2022-08-01T06:15:33;21.20;99.90
9939;DHT22;5008;50.656;7.188;2022-08-01T06:18:00;21.30;99.90
9939;DHT22;5008;50.656;7.188;2022-08-01T06:20:27;21.30;99.90
9939;DHT22;5008;50.656;7.188;2022-08-01T06:22:54;21.30;99.90
9939;DHT22;5008;50.656;7.188;2022-08-01T06:25:21;21.20;99.90
9939;DHT22;5008;50.656;7.188;2022-08-01T06:27:51;21.30;99.90
9939;DHT22;5008;50.656;7.188;2022-08-01T06:30:18;21.30;99.90
9939;DHT22;5008;50.656;7.188;2022-08-01T06:32:45;21.30;99.90
9939;DHT22;5008;50.656;7.188;2022-08-01T06:35:13;21.30;99.90
9939;DHT22;5008;50.656;7.188;2022-08-01T06:37:39;21.30;99.90
9939;DHT22;5008;50.656;7.188;2022-08-01T06:40:08;21.30;99.90
9939;DHT22;5008;50.656;7.188;2022-08-01T06:42:36;21.30;99.90
9939;DHT22;5008;50.656;7.188;2022-08-01T06:45:05;21.30;99.90
9939;DHT22;5008;50.656;7.188;2022-08-01T06:47:32;21.30;99.90
9939;DHT22;5008;50.656;7.188;2022-08-01T06:49:58;21.30;99.90
9939;DHT22;5008;50.656;7.188;2022-08-01T06:52:26;21.30;99.90
9939;DHT22;5008;50.656;7.188;2022-08-01T06:54:53;21.40;99.90
9939;DHT22;5008;50.656;7.188;2022-08-01T06:57:20;21.40;99.90
9939;DHT22;5008;50.656;7.188;2022-08-01T06:59:46;21.40;99.90
9939;DHT22;5008;50.656;7.188;2022-08-01T07:02:15;21.40;99.90
9939;DHT22;5008;50.656;7.188;2022-08-01T07:04:42;21.40;99.90
9939;DHT22;5008;50.656;7.188;2022-08-01T07:07:08;21.50;99.90
9939;DHT22;5008;50.656;7.188;2022-08-01T07:09:35;21.50;99.90
9939;DHT22;5008;50.656;7.188;2022-08-01T07:12:02;21.50;99.90
9939;DHT22;5008;50.656;7.188;2022-08-01T07:14:29;21.50;99.90
9939;DHT22;5008;50.656;7.188;2022-08-01T07:16:56;21.50;99.90
9939;DHT22;5008;50.656;7.188;2022-08-01T07:19:24;21.50;99.90
9939;DHT22;5008;50.656;7.188;2022-08-01T07:21:51;21.50;99.90
9939;DHT22;5008;50.656;7.188;2022-08-01T07:24:18;21.50;99.90
9939;DHT22;5008;50.656;7.188;2022-08-01T07:26:46;21.50;99.90
9939;DHT22;5008;50.656;7.188;2022-08-01T07:29:13;21.50;99.90
9939;DHT22;5008;50.656;7.188;2022-08-01T07:31:40;21.60;99.90
9939;DHT22;5008;50.656;7.188;2022-08-01T07:34:07;21.60;99.90
9939;DHT22;5008;50.656;7.188;2022-08-01T07:36:35;21.60;99.90
9939;DHT22;5008;50.656;7.188;2022-08-01T07:39:02;21.60;99.90
9939;DHT22;5008;50.656;7.188;2022-08-01T07:41:29;21.60;99.90
9939;DHT22;5008;50.656;7.188;2022-08-01T07:43:55;21.60;99.90
9939;DHT22;5008;50.656;7.188;2022-08-01T07:46:22;21.60;99.90
9939;DHT22;5008;50.656;7.188;2022-08-01T07:48:49;21.60;99.90
9939;DHT22;5008;50.656;7.188;2022-08-01T07:51:16;21.60;99.90
9939;DHT22;5008;50.656;7.188;2022-08-01T07:53:44;21.60;99.90
9939;DHT22;5008;50.656;7.188;2022-08-01T07:56:11;21.70;99.90
9939;DHT22;5008;50.656;7.188;2022-08-01T07:58:37;21.70;99.90
9939;DHT22;5008;50.656;7.188;2022-08-01T08:01:04;21.80;99.90
9939;DHT22;5008;50.656;7.188;2022-08-01T08:03:31;21.80;99.90
9939;DHT22;5008;50.656;7.188;2022-08-01T08:05:58;21.80;99.90
9939;DHT22;5008;50.656;7.188;2022-08-01T08:08:25;21.90;99.90
9939;DHT22;5008;50.656;7.188;2022-08-01T08:10:53;21.90;99.90
9939;DHT22;5008;50.656;7.188;2022-08-01T08:13:20;22.00;99.90
9939;DHT22;5008;50.656;7.188;2022-08-01T08:15:47;22.00;99.90
9939;DHT22;5008;50.656;7.188;2022-08-01T08:18:14;22.00;99.90
9939;DHT22;5008;50.656;7.188;2022-08-01T08:20:40;22.00;99.90
9939;DHT22;5008;50.656;7.188;2022-08-01T08:23:07;22.00;99.90
9939;DHT22;5008;50.656;7.188;2022-08-01T08:25:48;22.00;99.90
9939;DHT22;5008;50.656;7.188;2022-08-01T08:28:16;22.20;99.90
9939;DHT22;5008;50.656;7.188;2022-08-01T08:30:43;22.20;99.90
9939;DHT22;5008;50.656;7.188;2022-08-01T08:33:10;22.00;99.90
9939;DHT22;5008;50.656;7.188;2022-08-01T08:35:39;22.10;99.90
9939;DHT22;5008;50.656;7.188;2022-08-01T08:38:06;22.00;99.90
9939;DHT22;5008;50.656;7.188;2022-08-01T08:40:35;21.90;99.90
9939;DHT22;5008;50.656;7.188;2022-08-01T08:43:04;21.90;99.90
9939;DHT22;5008;50.656;7.188;2022-08-01T08:45:33;21.90;99.90
9939;DHT22;5008;50.656;7.188;2022-08-01T08:48:00;21.90;99.90
9939;DHT22;5008;50.656;7.188;2022-08-01T08:50:28;21.90;99.90
9939;DHT22;5008;50.656;7.188;2022-08-01T08:52:55;22.00;99.90
9939;DHT22;5008;50.656;7.188;2022-08-01T08:55:23;22.10;99.90
9939;DHT22;5008;50.656;7.188;2022-08-01T08:57:51;22.10;99.90
9939;DHT22;5008;50.656;7.188;2022-08-01T09:00:18;22.20;99.90
9939;DHT22;5008;50.656;7.188;2022-08-01T09:02:48;22.20;99.90
9939;DHT22;5008;50.656;7.188;2022-08-01T09:05:15;22.30;99.90
9939;DHT22;5008;50.656;7.188;2022-08-01T09:07:44;22.30;99.90
9939;DHT22;5008;50.656;7.188;2022-08-01T09:10:11;22.30;99.90
9939;DHT22;5008;50.656;7.188;2022-08-01T09:12:37;22.30;99.90
9939;DHT22;5008;50.656;7.188;2022-08-01T09:15:05;22.40;99.90
9939;DHT22;5008;50.656;7.188;2022-08-01T09:17:39;22.40;99.90
9939;DHT22;5008;50.656;7.188;2022-08-01T09:20:22;22.30;99.90
9939;DHT22;5008;50.656;7.188;2022-08-01T09:22:50;22.30;99.90
9939;DHT22;5008;50.656;7.188;2022-08-01T09:25:16;22.30;99.90
9939;DHT22;5008;50.656;7.188;2022-08-01T09:27:43;22.30;99.90
9939;DHT22;5008;50.656;7.188;2022-08-01T09:30:36;22.40;99.90
9939;DHT22;5008;50.656;7.188;2022-08-01T09:33:04;22.40;99.90
9939;DHT22;5008;50.656;7.188;2022-08-01T09:35:34;22.50;99.90
9939;DHT22;5008;50.656;7.188;2022-08-01T09:38:15;22.60;99.90
9939;DHT22;5008;50.656;7.188;2022-08-01T09:40:47;22.80;99.90
9939;DHT22;5008;50.656;7.188;2022-08-01T09:43:15;22.90;99.90
9939;DHT22;5008;50.656;7.188;2022-08-01T09:45:42;22.90;99.90
9939;DHT22;5008;50.656;7.188;2022-08-01T09:48:09;22.90;99.90
9939;DHT22;5008;50.656;7.188;2022-08-01T09:50:43;23.00;99.90
9939;DHT22;5008;50.656;7.188;2022-08-01T09:53:10;23.00;99.90
9939;DHT22;5008;50.656;7.188;2022-08-01T09:55:37;22.90;99.90
9939;DHT22;5008;50.656;7.188;2022-08-01T09:58:05;22.90;99.90
9939;DHT22;5008;50.656;7.188;2022-08-01T10:00:33;22.90;99.90
9939;DHT22;5008;50.656;7.188;2022-08-01T10:03:19;22.80;99.90
9939;DHT22;5008;50.656;7.188;2022-08-01T10:05:47;22.90;99.90
9939;DHT22;5008;50.656;7.188;2022-08-01T10:08:14;22.80;99.90
9939;DHT22;5008;50.656;7.188;2022-08-01T10:10:42;22.90;99.90
9939;DHT22;5008;50.656;7.188;2022-08-01T10:13:11;22.90;99.90
9939;DHT22;5008;50.656;7.188;2022-08-01T10:15:41;23.00;99.90
9939;DHT22;5008;50.656;7.188;2022-08-01T10:18:09;23.00;99.90
9939;DHT22;5008;50.656;7.188;2022-08-01T10:20:38;23.20;99.90
9939;DHT22;5008;50.656;7.188;2022-08-01T10:23:07;23.20;99.90
9939;DHT22;5008;50.656;7.188;2022-08-01T10:25:36;23.10;99.90
9939;DHT22;5008;50.656;7.188;2022-08-01T10:28:10;23.20;99.90
9939;DHT22;5008;50.656;7.188;2022-08-01T10:30:41;23.40;99.90
9939;DHT22;5008;50.656;7.188;2022-08-01T10:33:12;23.40;99.90
9939;DHT22;5008;50.656;7.188;2022-08-01T10:35:39;23.50;99.90
9939;DHT22;5008;50.656;7.188;2022-08-01T10:38:08;23.50;99.90
9939;DHT22;5008;50.656;7.188;2022-08-01T10:40:35;23.50;99.90
9939;DHT22;5008;50.656;7.188;2022-08-01T10:43:03;23.50;99.90
9939;DHT22;5008;50.656;7.188;2022-08-01T10:45:30;23.40;99.90
9939;DHT22;5008;50.656;7.188;2022-08-01T10:48:02;23.50;99.90
9939;DHT22;5008;50.656;7.188;2022-08-01T10:50:33;23.50;99.90
9939;DHT22;5008;50.656;7.188;2022-08-01T10:53:10;23.60;99.90
9939;DHT22;5008;50.656;7.188;2022-08-01T10:55:46;23.60;99.90
9939;DHT22;5008;50.656;7.188;2022-08-01T10:58:13;23.50;99.90
9939;DHT22;5008;50.656;7.188;2022-08-01T11:00:40;23.40;99.90
9939;DHT22;5008;50.656;7.188;2022-08-01T11:03:07;23.40;99.90
9939;DHT22;5008;50.656;7.188;2022-08-01T11:05:35;23.40;99.90
9939;DHT22;5008;50.656;7.188;2022-08-01T11:08:05;23.40;99.90
9939;DHT22;5008;50.656;7.188;2022-08-01T11:10:38;23.50;99.90
9939;DHT22;5008;50.656;7.188;2022-08-01T11:13:06;23.40;99.90
9939;DHT22;5008;50.656;7.188;2022-08-01T11:15:34;23.50;99.90
9939;DHT22;5008;50.656;7.188;2022-08-01T11:18:03;23.40;99.90
9939;DHT22;5008;50.656;7.188;2022-08-01T11:20:31;23.50;99.90
9939;DHT22;5008;50.656;7.188;2022-08-01T11:23:22;23.40;99.90
9939;DHT22;5008;50.656;7.188;2022-08-01T11:26:21;23.30;99.90
9939;DHT22;5008;50.656;7.188;2022-08-01T11:29:13;23.20;99.90
9939;DHT22;5008;50.656;7.188;2022-08-01T11:31:40;23.20;99.90
9939;DHT22;5008;50.656;7.188;2022-08-01T11:34:13;23.20;99.90
9939;DHT22;5008;50.656;7.188;2022-08-01T11:36:39;23.20;99.90
9939;DHT22;5008;50.656;7.188;2022-08-01T11:39:15;23.30;99.90
9939;DHT22;5008;50.656;7.188;2022-08-01T11:41:45;23.40;99.90
9939;DHT22;5008;50.656;7.188;2022-08-01T11:44:15;23.30;99.90
9939;DHT22;5008;50.656;7.188;2022-08-01T11:46:59;23.40;99.90
9939;DHT22;5008;50.656;7.188;2022-08-01T11:49:31;23.50;99.90
9939;DHT22;5008;50.656;7.188;2022-08-01T11:52:01;23.70;99.90
9939;DHT22;5008;50.656;7.188;2022-08-01T11:54:29;23.90;99.90
9939;DHT22;5008;50.656;7.188;2022-08-01T11:56:59;24.00;99.90
9939;DHT22;5008;50.656;7.188;2022-08-01T11:59:27;24.10;99.90
9939;DHT22;5008;50.656;7.188;2022-08-01T12:01:54;24.10;99.90
9939;DHT22;5008;50.656;7.188;2022-08-01T12:04:45;24.00;99.90
9939;DHT22;5008;50.656;7.188;2022-08-01T12:07:13;23.80;99.90
9939;DHT22;5008;50.656;7.188;2022-08-01T12:09:40;23.70;99.90
9939;DHT22;5008;50.656;7.188;2022-08-01T12:12:08;23.60;99.90
9939;DHT22;5008;50.656;7.188;2022-08-01T12:14:36;23.60;99.90
9939;DHT22;5008;50.656;7.188;2022-08-01T12:17:03;23.60;99.90
9939;DHT22;5008;50.656;7.188;2022-08-01T12:19:31;23.60;99.90
9939;DHT22;5008;50.656;7.188;2022-08-01T12:22:12;23.70;99.90
9939;DHT22;5008;50.656;7.188;2022-08-01T12:24:41;23.60;99.90
9939;DHT22;5008;50.656;7.188;2022-08-01T12:27:10;23.50;99.90
9939;DHT22;5008;50.656;7.188;2022-08-01T12:29:39;23.50;99.90
9939;DHT22;5008;50.656;7.188;2022-08-01T12:32:22;23.40;99.90
9939;DHT22;5008;50.656;7.188;2022-08-01T12:34:50;23.40;99.90
9939;DHT22;5008;50.656;7.188;2022-08-01T12:37:17;23.50;99.90
9939;DHT22;5008;50.656;7.188;2022-08-01T12:39:45;23.50;99.90
9939;DHT22;5008;50.656;7.188;2022-08-01T12:42:19;23.40;99.90
9939;DHT22;5008;50.656;7.188;2022-08-01T12:44:50;23.40;99.90
9939;DHT22;5008;50.656;7.188;2022-08-01T12:47:18;23.40;99.90
9939;DHT22;5008;50.656;7.188;2022-08-01T12:49:47;23.30;99.90
9939;DHT22;5008;50.656;7.188;2022-08-01T12:52:14;23.30;99.90
9939;DHT22;5008;50.656;7.188;2022-08-01T12:55:06;23.50;99.90
9939;DHT22;5008;50.656;7.188;2022-08-01T12:57:37;23.40;99.90
9939;DHT22;5008;50.656;7.188;2022-08-01T13:00:10;23.40;99.90
9939;DHT22;5008;50.656;7.188;2022-08-01T13:02:38;23.50;99.90
9939;DHT22;5008;50.656;7.188;2022-08-01T13:05:06;23.50;99.90
9939;DHT22;5008;50.656;7.188;2022-08-01T13:07:44;23.50;99.90
9939;DHT22;5008;50.656;7.188;2022-08-01T13:10:12;23.60;99.90
9939;DHT22;5008;50.656;7.188;2022-08-01T13:12:49;23.60;99.90
9939;DHT22;5008;50.656;7.188;2022-08-01T13:15:26;23.50;99.90
9939;DHT22;5008;50.656;7.188;2022-08-01T13:17:54;23.50;99.90
9939;DHT22;5008;50.656;7.188;2022-08-01T13:20:25;23.70;99.90
9939;DHT22;5008;50.656;7.188;2022-08-01T13:22:55;23.80;99.90
9939;DHT22;5008;50.656;7.188;2022-08-01T13:25:22;24.10;99.90
9939;DHT22;5008;50.656;7.188;2022-08-01T13:28:15;24.10;99.90
9939;DHT22;5008;50.656;7.188;2022-08-01T13:30:51;24.20;99.90
9939;DHT22;5008;50.656;7.188;2022-08-01T13:33:23;24.20;99.90
9939;DHT22;5008;50.656;7.188;2022-08-01T13:35:53;24.10;99.90
9939;DHT22;5008;50.656;7.188;2022-08-01T13:38:25;24.10;99.90
9939;DHT22;5008;50.656;7.188;2022-08-01T13:41:09;24.00;99.90
9939;DHT22;5008;50.656;7.188;2022-08-01T13:43:37;24.00;99.90
9939;DHT22;5008;50.656;7.188;2022-08-01T13:46:05;24.10;99.90
9939;DHT22;5008;50.656;7.188;2022-08-01T13:48:32;24.10;99.90
9939;DHT22;5008;50.656;7.188;2022-08-01T13:51:02;24.20;99.90
9939;DHT22;5008;50.656;7.188;2022-08-01T13:53:30;24.20;99.90
9939;DHT22;5008;50.656;7.188;2022-08-01T13:55:56;24.20;99.90
9939;DHT22;5008;50.656;7.188;2022-08-01T13:58:24;24.10;99.90
9939;DHT22;5008;50.656;7.188;2022-08-01T14:00:52;24.10;99.90
9939;DHT22;5008;50.656;7.188;2022-08-01T14:03:19;24.10;99.90
9939;DHT22;5008;50.656;7.188;2022-08-01T14:05:47;24.10;99.90
9939;DHT22;5008;50.656;7.188;2022-08-01T14:08:20;24.00;99.90
9939;DHT22;5008;50.656;7.188;2022-08-01T14:10:52;24.10;99.90
9939;DHT22;5008;50.656;7.188;2022-08-01T14:13:22;24.10;99.90
9939;DHT22;5008;50.656;7.188;2022-08-01T14:15:52;24.20;99.90
9939;DHT22;5008;50.656;7.188;2022-08-01T14:18:19;24.10;99.90
9939;DHT22;5008;50.656;7.188;2022-08-01T14:20:46;24.00;99.90
9939;DHT22;5008;50.656;7.188;2022-08-01T14:23:13;23.90;99.90
9939;DHT22;5008;50.656;7.188;2022-08-01T14:25:40;23.90;99.90
9939;DHT22;5008;50.656;7.188;2022-08-01T14:28:07;23.90;99.90
9939;DHT22;5008;50.656;7.188;2022-08-01T14:30:38;23.90;99.90
9939;DHT22;5008;50.656;7.188;2022-08-01T14:33:10;23.90;99.90
9939;DHT22;5008;50.656;7.188;2022-08-01T14:35:38;23.90;99.90
9939;DHT22;5008;50.656;7.188;2022-08-01T14:38:05;24.00;99.90
9939;DHT22;5008;50.656;7.188;2022-08-01T14:40:33;24.10;99.90
9939;DHT22;5008;50.656;7.188;2022-08-01T14:43:00;24.10;99.90
9939;DHT22;5008;50.656;7.188;2022-08-01T14:45:27;24.10;99.90
9939;DHT22;5008;50.656;7.188;2022-08-01T14:47:54;24.10;99.90
9939;DHT22;5008;50.656;7.188;2022-08-01T14:50:22;24.10;99.90
9939;DHT22;5008;50.656;7.188;2022-08-01T14:52:52;24.20;99.90
9939;DHT22;5008;50.656;7.188;2022-08-01T14:55:19;24.10;99.90
9939;DHT22;5008;50.656;7.188;2022-08-01T14:57:50;24.10;99.90
9939;DHT22;5008;50.656;7.188;2022-08-01T15:00:17;24.10;99.90
9939;DHT22;5008;50.656;7.188;2022-08-01T15:02:45;24.10;99.90
9939;DHT22;5008;50.656;7.188;2022-08-01T15:05:12;24.10;99.90
9939;DHT22;5008;50.656;7.188;2022-08-01T15:08:02;24.10;99.90
9939;DHT22;5008;50.656;7.188;2022-08-01T15:10:29;24.20;99.90
9939;DHT22;5008;50.656;7.188;2022-08-01T15:12:57;24.30;99.90
9939;DHT22;5008;50.656;7.188;2022-08-01T15:15:25;24.30;99.90
9939;DHT22;5008;50.656;7.188;2022-08-01T15:17:52;24.40;99.90
9939;DHT22;5008;50.656;7.188;2022-08-01T15:20:19;24.40;99.90
9939;DHT22;5008;50.656;7.188;2022-08-01T15:22:46;24.60;99.90
9939;DHT22;5008;50.656;7.188;2022-08-01T15:25:16;24.50;99.90
9939;DHT22;5008;50.656;7.188;2022-08-01T15:27:43;24.50;99.90
9939;DHT22;5008;50.656;7.188;2022-08-01T15:30:17;24.60;99.90
9939;DHT22;5008;50.656;7.188;2022-08-01T15:33:01;24.60;99.90
9939;DHT22;5008;50.656;7.188;2022-08-01T15:35:28;24.60;99.90
9939;DHT22;5008;50.656;7.188;2022-08-01T15:37:55;24.40;99.90
9939;DHT22;5008;50.656;7.188;2022-08-01T15:40:23;24.40;99.90
9939;DHT22;5008;50.656;7.188;2022-08-01T15:42:50;24.40;99.90
9939;DHT22;5008;50.656;7.188;2022-08-01T15:45:17;24.40;99.90
9939;DHT22;5008;50.656;7.188;2022-08-01T15:47:46;24.40;99.90
9939;DHT22;5008;50.656;7.188;2022-08-01T15:50:13;24.40;99.90
9939;DHT22;5008;50.656;7.188;2022-08-01T15:52:51;24.30;99.90
9939;DHT22;5008;50.656;7.188;2022-08-01T15:55:18;24.40;99.90
9939;DHT22;5008;50.656;7.188;2022-08-01T15:57:48;24.50;99.90
9939;DHT22;5008;50.656;7.188;2022-08-01T16:00:15;24.30;99.90
9939;DHT22;5008;50.656;7.188;2022-08-01T16:02:48;24.30;99.90
9939;DHT22;5008;50.656;7.188;2022-08-01T16:05:15;24.20;99.90
9939;DHT22;5008;50.656;7.188;2022-08-01T16:07:43;24.10;99.90
9939;DHT22;5008;50.656;7.188;2022-08-01T16:10:09;24.10;99.90
9939;DHT22;5008;50.656;7.188;2022-08-01T16:12:36;24.00;99.90
9939;DHT22;5008;50.656;7.188;2022-08-01T16:15:06;24.10;99.90
9939;DHT22;5008;50.656;7.188;2022-08-01T16:17:32;24.20;99.90